Time;durP1;ratioP1;P1;durP2;ratioP2;P2;SDS_P1;SDS_P2;PMS_P1;PMS_P2;Temp;Humidity;BMP_temperature;BMP_pressure;BME280_temperature;BME280_humidity;BME280_pressure;Samples;Min_cycle;Max_cycle;Signal;HPM_P1;HPM_P2
2022/04/21 11:16:10;;;;;;;3.53;2.90;;;;;;;23.20;26.45;98255.03;5145871;27;20346;-59
2022/04/21 11:19:31;;;;;;;8.20;3.95;;;;;;;22.52;24.39;98260.03;5114090;28;20355;-59
2022/04/21 11:22:35;;;;;;;5.43;4.07;;;;;;;20.98;27.43;98261.81;5128424;28;20043;-56
2022/04/21 11:25:20;;;;;;;3.50;2.75;;;;;;;22.96;24.54;98255.38;5114625;28;20487;-45
2022/04/21 11:28:05;;;;;;;3.97;2.70;;;;;;;22.59;25.24;98260.03;5118905;28;20047;-45
2022/04/21 11:30:58;;;;;;;5.97;2.92;;;;;;;22.07;25.19;98258.47;5129518;28;20164;-45
2022/04/21 11:33:44;;;;;;;4.97;3.70;;;;;;;21.52;25.31;98250.94;5128251;28;20065;-48
2022/04/21 11:36:37;;;;;;;3.95;3.20;;;;;;;20.43;26.63;98254.09;5125326;28;20118;-58
2022/04/21 11:39:22;;;;;;;3.78;2.90;;;;;;;21.65;25.68;98260.94;5112011;28;20061;-59
2022/04/21 11:42:07;;;;;;;6.25;2.95;;;;;;;22.56;24.54;98247.09;5094978;28;20078;-58
2022/04/21 11:44:54;;;;;;;3.72;2.60;;;;;;;22.82;23.93;98246.44;5110163;28;20051;-58
2022/04/21 11:47:38;;;;;;;4.68;2.70;;;;;;;21.86;24.37;98240.63;5129732;28;20047;-58
2022/04/21 11:50:25;;;;;;;3.20;2.28;;;;;;;21.67;24.19;98235.72;5129125;28;20047;-58
2022/04/21 11:53:15;;;;;;;3.97;2.10;;;;;;;21.06;23.94;98250.25;5127536;28;20044;-57
2022/04/21 11:55:59;;;;;;;2.88;1.90;;;;;;;23.35;23.00;98249.53;5122275;28;20099;-58
2022/04/21 11:58:45;;;;;;;2.80;1.83;;;;;;;23.42;21.99;98242.38;5118517;28;20077;-58
2022/04/21 12:07:37;;;;;;;2.85;1.63;;;;;;;23.85;23.06;98214.47;5107515;28;20092;-57
2022/04/21 12:10:22;;;;;;;1.55;1.30;;;;;;;24.07;22.42;98216.13;5109120;28;20046;-59
2022/04/21 12:13:08;;;;;;;2.90;1.70;;;;;;;23.14;23.18;98228.09;5108084;28;20047;-58
2022/04/21 12:15:54;;;;;;;3.65;1.90;;;;;;;23.60;22.47;98217.75;5109273;28;20086;-58
2022/04/21 12:18:48;;;;;;;2.20;1.75;;;;;;;23.40;23.14;98215.06;5107820;28;20036;-59
2022/04/21 12:21:35;;;;;;;2.20;1.60;;;;;;;23.56;22.20;98216.50;5107727;28;20051;-58
2022/04/21 12:24:20;;;;;;;2.13;1.45;;;;;;;23.68;23.05;98213.25;5107791;28;20047;-58
2022/04/21 12:27:13;;;;;;;1.90;1.60;;;;;;;23.52;22.87;98220.59;5097785;28;20424;-58
2022/04/21 12:30:00;;;;;;;3.15;1.95;;;;;;;22.37;23.39;98204.94;5094883;28;20039;-57
2022/04/21 12:32:49;;;;;;;2.47;1.80;;;;;;;22.39;23.82;98215.41;5094223;28;20036;-58
2022/04/21 12:35:45;;;;;;;2.40;1.80;;;;;;;22.42;23.93;98217.69;5110987;28;20142;-59
2022/04/21 12:41:33;;;;;;;2.08;1.45;;;;;;;24.36;21.18;98214.06;5102790;28;20059;-58
2022/04/21 12:44:19;;;;;;;2.92;1.90;;;;;;;24.08;21.82;98197.19;5114367;28;20116;-58
2022/04/21 12:47:11;;;;;;;2.10;1.60;;;;;;;23.80;21.59;98200.06;5114445;28;20047;-58
2022/04/21 12:50:03;;;;;;;2.40;1.63;;;;;;;23.47;22.03;98210.53;5114680;28;20479;-57
2022/04/21 12:52:55;;;;;;;2.22;1.30;;;;;;;23.63;22.35;98203.16;5093784;28;20062;-58
2022/04/21 12:55:39;;;;;;;4.05;1.27;;;;;;;24.41;21.00;98198.19;5094459;28;20051;-59
2022/04/21 12:58:30;;;;;;;2.28;1.30;;;;;;;23.55;23.20;98203.34;5079453;28;20052;-59
2022/04/21 13:01:15;;;;;;;2.53;1.60;;;;;;;22.57;24.31;98209.53;5094631;28;20040;-60
2022/04/21 13:04:00;;;;;;;2.00;1.40;;;;;;;23.43;22.69;98203.13;5094717;28;20044;-59
2022/04/21 13:06:44;;;;;;;3.10;1.35;;;;;;;22.93;22.52;98201.53;5094665;28;20479;-59
2022/04/21 13:09:31;;;;;;;2.17;1.25;;;;;;;22.03;23.24;98202.00;5094241;28;20403;-60
2022/04/21 13:12:16;;;;;;;2.67;1.20;;;;;;;22.19;23.10;98202.75;5094430;28;20052;-61
2022/04/21 13:15:05;;;;;;;2.95;1.42;;;;;;;22.17;23.10;98217.28;5093815;28;20155;-61
2022/04/21 13:17:50;;;;;;;2.05;1.20;;;;;;;21.52;23.67;98217.16;5094007;28;20406;-62
2022/04/21 13:23:38;;;;;;;2.53;1.20;;;;;;;21.70;23.62;98201.72;5094426;28;20048;-63
2022/04/21 13:26:28;;;;;;;2.95;1.33;;;;;;;22.14;23.40;98206.00;5094240;28;20036;-61
2022/04/21 13:29:13;;;;;;;5.65;1.23;;;;;;;22.50;23.38;98190.00;5093982;28;20101;-61
2022/04/21 13:35:02;;;;;;;2.08;1.30;;;;;;;22.05;24.39;98177.03;5093841;28;20085;-61
2022/04/21 13:37:46;;;;;;;2.28;1.38;;;;;;;21.09;26.18;98179.81;5106294;28;20501;-61
2022/04/21 13:40:31;;;;;;;3.22;1.20;;;;;;;21.54;24.93;98175.13;5112959;28;20035;-61
2022/04/21 13:43:16;;;;;;;2.10;1.20;;;;;;;22.38;23.73;98181.72;5113305;28;20043;-61
2022/04/21 13:46:02;;;;;;;5.25;1.25;;;;;;;21.99;24.15;98181.28;5113189;28;20043;-61
2022/04/21 13:48:46;;;;;;;2.65;1.45;;;;;;;21.08;25.41;98199.47;5114311;28;20395;-62
2022/04/21 13:51:31;;;;;;;1.77;1.20;;;;;;;21.19;24.91;98185.66;5114184;28;20036;-63
2022/04/21 13:54:17;;;;;;;3.80;1.48;;;;;;;21.31;24.50;98183.34;5113024;28;20475;-60
2022/04/21 13:57:03;;;;;;;2.13;1.05;;;;;;;21.34;24.46;98176.78;5084655;28;20047;-60
2022/04/21 13:59:48;;;;;;;2.22;1.48;;;;;;;20.91;24.76;98181.84;5113908;28;20424;-62
2022/04/21 14:02:33;;;;;;;3.80;1.52;;;;;;;22.03;23.61;98172.69;5113960;28;20039;-61
2022/04/21 14:05:18;;;;;;;1.70;1.13;;;;;;;20.85;24.98;98165.81;5114037;28;20477;-62
2022/04/21 14:08:03;;;;;;;1.85;1.25;;;;;;;21.35;24.97;98167.81;5112968;28;20036;-61
2022/04/21 14:10:48;;;;;;;2.92;1.30;;;;;;;20.61;25.68;98186.38;5113822;28;20044;-61
2022/04/21 14:13:34;;;;;;;1.92;1.10;;;;;;;20.74;25.62;98162.63;5098554;28;20099;-62
2022/04/21 14:16:19;;;;;;;3.03;1.40;;;;;;;19.98;26.72;98166.22;5112785;28;20439;-62
2022/04/21 14:19:05;;;;;;;1.95;1.30;;;;;;;20.40;26.10;98162.19;5113661;28;20394;-61
2022/04/21 14:21:51;;;;;;;2.92;1.30;;;;;;;20.10;26.44;98162.19;5113692;28;20043;-62
2022/04/21 14:24:37;;;;;;;2.00;1.25;;;;;;;19.81;26.75;98164.56;5113528;28;20048;-61
2022/04/21 14:27:21;;;;;;;1.17;1.00;;;;;;;20.74;25.49;98156.47;5113175;28;20062;-61
2022/04/21 14:30:07;;;;;;;3.40;1.58;;;;;;;21.07;25.62;98156.03;5113445;28;20420;-62
2022/04/21 14:32:54;;;;;;;4.00;1.48;;;;;;;20.38;26.36;98166.88;5112452;28;20047;-62
2022/04/21 14:35:38;;;;;;;2.28;1.40;;;;;;;19.00;27.43;98149.88;5112318;28;20051;-62
2022/04/21 14:44:31;;;;;;;3.47;1.40;;;;;;;19.23;27.67;98141.13;5111810;28;20177;-63
2022/04/21 14:47:15;;;;;;;2.22;1.30;;;;;;;19.10;28.04;98146.19;5113478;28;20047;-61
2022/04/21 14:50:02;;;;;;;2.55;1.35;;;;;;;19.29;28.02;98152.88;5113189;28;20051;-62
2022/04/21 14:52:46;;;;;;;4.03;1.92;;;;;;;19.33;27.84;98149.69;5111516;28;20059;-61
2022/04/21 14:55:32;;;;;;;2.28;1.48;;;;;;;19.53;27.74;98154.53;5111939;28;20122;-62
2022/04/21 14:58:18;;;;;;;1.58;1.30;;;;;;;19.94;27.22;98150.66;5113055;28;20048;-61
2022/04/21 15:01:02;;;;;;;1.73;1.20;;;;;;;19.62;27.72;98155.25;5112896;28;20051;-63
2022/04/21 15:03:48;;;;;;;6.97;2.08;;;;;;;19.15;28.60;98149.97;5112696;28;20043;-61
2022/04/21 15:06:35;;;;;;;4.50;1.30;;;;;;;19.56;27.93;98158.66;5112681;28;20046;-62
2022/04/21 15:09:20;;;;;;;2.15;1.30;;;;;;;19.26;28.17;98148.72;5111869;28;20101;-62
2022/04/21 15:12:06;;;;;;;1.67;1.35;;;;;;;19.16;28.67;98146.31;5096950;28;20487;-61
2022/04/21 15:14:51;;;;;;;2.05;1.25;;;;;;;19.09;28.49;98140.03;5091479;28;20059;-61
2022/04/21 15:17:36;;;;;;;1.85;1.20;;;;;;;19.00;28.69;98144.56;5089556;28;20043;-61
2022/04/21 15:20:21;;;;;;;2.63;1.60;;;;;;;18.47;29.67;98145.97;5100541;28;20104;-61
2022/04/21 15:23:11;;;;;;;2.42;1.58;;;;;;;19.02;29.07;98131.94;5093968;28;20534;-61
2022/04/21 15:25:56;;;;;;;2.80;1.50;;;;;;;18.96;29.14;98133.44;5106469;28;20127;-62
2022/04/21 15:28:41;;;;;;;1.90;1.33;;;;;;;17.97;30.31;98147.88;5109545;28;20051;-62
2022/04/21 15:31:27;;;;;;;2.22;1.55;;;;;;;18.43;30.26;98135.88;5102357;28;20051;-61
2022/04/21 15:34:12;;;;;;;2.45;1.63;;;;;;;18.22;30.46;98140.75;5106568;28;20040;-61
2022/04/21 15:36:56;;;;;;;2.53;1.42;;;;;;;17.81;31.01;98138.16;5090741;28;20403;-62
2022/04/21 15:39:43;;;;;;;2.17;1.52;;;;;;;17.50;30.93;98139.66;5092254;28;20444;-61
2022/04/21 15:42:28;;;;;;;2.40;1.40;;;;;;;17.77;30.59;98142.97;5090450;28;20040;-62
2022/04/21 15:45:13;;;;;;;2.72;1.77;;;;;;;17.83;30.50;98144.13;5090377;28;20071;-62
2022/04/21 15:47:58;;;;;;;3.72;1.40;;;;;;;17.74;30.43;98124.75;5090736;28;20050;-63
2022/04/21 15:50:45;;;;;;;3.17;1.60;;;;;;;17.42;31.35;98129.91;5091431;28;20072;-63
2022/04/21 15:59:37;;;;;;;3.03;1.48;;;;;;;17.32;31.35;98131.88;5090254;28;20047;-62
2022/04/21 16:02:22;;;;;;;4.07;1.50;;;;;;;17.07;31.54;98134.47;5094102;28;20107;-63
2022/04/21 16:05:06;;;;;;;2.70;1.73;;;;;;;17.33;31.09;98123.75;5094798;28;20036;-63
2022/04/21 16:07:51;;;;;;;2.67;1.48;;;;;;;17.12;31.19;98124.22;5094743;28;20036;-63
2022/04/21 16:10:36;;;;;;;1.52;1.30;;;;;;;16.71;31.79;98136.34;5094367;28;20702;-63
2022/04/21 16:13:21;;;;;;;2.38;1.60;;;;;;;16.71;31.42;98125.78;5095921;28;20036;-63
2022/04/21 16:16:06;;;;;;;2.70;1.60;;;;;;;16.71;31.73;98128.41;5097498;28;20056;-62
2022/04/21 16:18:52;;;;;;;1.98;1.50;;;;;;;16.83;31.62;98126.31;5081629;28;20526;-63
2022/04/21 16:21:37;;;;;;;3.85;1.63;;;;;;;16.21;32.11;98136.16;5100245;28;20039;-62
2022/04/21 16:24:22;;;;;;;2.28;1.60;;;;;;;16.16;31.94;98138.44;5102764;28;20040;-62
2022/04/21 16:27:07;;;;;;;2.45;1.42;;;;;;;16.32;32.05;98129.75;5103863;28;20116;-61
2022/04/21 16:29:52;;;;;;;3.45;1.70;;;;;;;16.10;32.44;98129.31;5101222;28;20074;-62
2022/04/21 16:32:37;;;;;;;3.78;1.65;;;;;;;15.83;32.92;98135.56;5101865;28;20067;-62
2022/04/21 16:35:22;;;;;;;2.05;1.23;;;;;;;15.74;32.59;98135.50;5096198;28;20046;-61
2022/04/21 16:38:08;;;;;;;2.35;1.40;;;;;;;15.57;33.14;98131.91;5096160;28;20475;-63
2022/04/21 16:40:53;;;;;;;1.83;1.30;;;;;;;15.57;33.44;98131.09;5096060;28;20044;-62
2022/04/21 16:43:39;;;;;;;2.10;1.50;;;;;;;15.42;33.33;98139.56;5102417;28;20038;-61
2022/04/21 16:46:24;;;;;;;2.83;1.60;;;;;;;15.22;34.26;98138.88;5099521;28;20032;-61
2022/04/21 16:49:09;;;;;;;2.15;1.42;;;;;;;15.22;34.18;98128.31;5100046;28;20047;-64
2022/04/21 16:51:54;;;;;;;3.08;1.45;;;;;;;14.90;35.06;98133.13;5103352;28;20043;-62
2022/04/21 16:54:39;;;;;;;2.58;1.48;;;;;;;14.88;36.44;98121.91;5109486;28;20089;-63
2022/04/21 16:57:23;;;;;;;2.20;1.42;;;;;;;14.82;35.48;98133.84;5108942;28;20115;-63
2022/04/21 17:00:10;;;;;;;2.70;1.65;;;;;;;14.82;35.87;98133.03;5110212;28;20036;-63
2022/04/21 17:02:54;;;;;;;1.88;1.42;;;;;;;14.72;36.22;98136.50;5087472;28;20070;-63
2022/04/21 17:05:39;;;;;;;3.85;1.67;;;;;;;14.59;36.54;98141.31;5106967;28;20708;-63
2022/04/21 17:08:24;;;;;;;2.22;1.67;;;;;;;14.57;36.41;98136.19;5101896;28;20040;-63
2022/04/21 17:11:09;;;;;;;3.38;1.80;;;;;;;14.41;36.88;98135.00;5107718;28;20036;-63
2022/04/21 17:13:54;;;;;;;4.57;1.52;;;;;;;14.33;37.32;98140.16;5095030;28;20047;-64
2022/04/21 17:16:39;;;;;;;2.90;1.52;;;;;;;14.39;37.04;98134.31;5105784;28;20470;-64
2022/04/21 17:19:24;;;;;;;3.38;1.60;;;;;;;14.51;36.88;98134.13;5097955;28;20528;-62
2022/04/21 17:22:11;;;;;;;4.25;1.63;;;;;;;14.39;37.23;98144.84;5112570;28;20159;-62
2022/04/21 17:24:56;;;;;;;2.88;1.90;;;;;;;14.34;37.43;98144.47;5110201;28;20050;-63
2022/04/21 17:27:41;;;;;;;2.33;1.50;;;;;;;14.41;37.76;98144.72;5112867;28;20043;-63
2022/04/21 17:30:25;;;;;;;3.20;1.33;;;;;;;14.59;46.32;98141.31;5108135;28;20048;-52
2022/04/21 17:33:10;;;;;;;1.98;1.52;;;;;;;15.59;37.47;98144.94;5105153;28;20590;-63
2022/04/21 17:35:55;;;;;;;4.40;1.65;;;;;;;14.62;37.73;98136.56;5105672;28;20044;-63
2022/04/21 17:38:40;;;;;;;2.38;1.70;;;;;;;14.25;38.06;98140.06;5103311;28;20043;-64
2022/04/21 17:41:24;;;;;;;2.72;1.90;;;;;;;14.05;38.69;98148.03;5105408;28;20111;-65
2022/04/21 17:44:11;;;;;;;3.40;1.70;;;;;;;14.10;38.81;98152.88;5100501;28;20042;-66
2022/04/21 17:46:55;;;;;;;7.07;1.63;;;;;;;14.23;38.78;98142.03;5077024;28;20112;-62
2022/04/21 17:49:41;;;;;;;2.67;1.40;;;;;;;14.11;38.82;98142.19;5114320;28;20053;-63
2022/04/21 17:52:27;;;;;;;3.00;1.40;;;;;;;13.92;39.41;98151.78;5104129;28;20039;-61
2022/04/21 17:55:12;;;;;;;2.50;1.30;;;;;;;13.96;39.17;98154.13;5094480;28;20043;-62
2022/04/21 17:57:57;;;;;;;4.30;2.25;;;;;;;13.90;38.99;98148.50;5104374;28;20040;-61
2022/04/21 18:00:44;;;;;;;3.42;1.88;;;;;;;13.61;39.55;98145.91;5110021;28;20125;-62
2022/04/21 18:03:29;;;;;;;2.22;1.48;;;;;;;13.52;39.65;98150.19;5104911;28;20036;-61
2022/04/21 18:06:21;;;;;;;2.45;1.58;;;;;;;13.49;39.58;98148.66;5106951;28;20055;-63
2022/04/21 18:09:07;;;;;;;2.75;1.60;;;;;;;13.39;39.86;98158.31;5097988;28;20116;-65
2022/04/21 18:11:52;;;;;;;3.95;2.00;;;;;;;13.31;40.00;98151.13;5109087;28;20044;-62
2022/04/21 18:14:38;;;;;;;2.92;1.77;;;;;;;13.26;40.12;98148.91;5101365;28;20043;-61
2022/04/21 18:17:24;;;;;;;3.50;1.58;;;;;;;13.27;40.11;98155.84;5104130;28;20031;-62
2022/04/21 18:20:11;;;;;;;2.53;1.80;;;;;;;13.24;40.31;98157.91;5102403;28;20038;-63
2022/04/21 18:22:56;;;;;;;2.78;1.58;;;;;;;13.18;40.38;98152.25;5089622;28;20031;-64
2022/04/21 18:25:41;;;;;;;4.13;1.55;;;;;;;13.06;40.35;98154.16;5090134;28;20052;-63
2022/04/21 18:28:26;;;;;;;2.35;1.60;;;;;;;13.13;39.87;98158.88;5093468;28;20069;-63
2022/04/21 18:31:13;;;;;;;3.08;1.58;;;;;;;13.25;41.32;98162.22;5103982;27;20043;-64
2022/04/21 18:34:03;;;;;;;1.90;1.40;;;;;;;13.11;39.43;98145.00;5097802;28;20532;-64
2022/04/21 18:36:48;;;;;;;6.10;1.70;;;;;;;13.13;45.40;98151.81;5109182;28;20398;-63
2022/04/21 18:39:33;;;;;;;4.38;1.80;;;;;;;13.16;38.86;98164.69;5113119;28;20040;-64
2022/04/21 18:42:18;;;;;;;2.65;1.65;;;;;;;13.06;38.80;98155.94;5112039;28;20040;-62
2022/04/21 18:45:04;;;;;;;4.85;1.75;;;;;;;12.93;39.04;98161.47;5113363;28;20036;-63
2022/04/21 18:47:50;;;;;;;4.00;1.65;;;;;;;12.92;39.37;98163.28;5111977;28;20114;-61
2022/04/21 18:50:37;;;;;;;2.75;1.70;;;;;;;12.94;39.30;98156.06;5112027;28;20528;-64
2022/04/21 18:53:23;;;;;;;3.45;2.00;;;;;;;12.82;39.34;98159.78;5113240;28;20080;-66
2022/04/21 18:56:11;;;;;;;4.20;1.45;;;;;;;12.76;39.56;98158.50;5105147;28;20032;-68
2022/04/21 18:59:06;;;;;;;2.50;1.67;;;;;;;12.76;39.67;98155.06;5087592;28;20059;-68
2022/04/21 19:01:53;;;;;;;2.92;1.70;;;;;;;12.73;39.63;98152.72;5101721;28;20128;-67
2022/04/21 19:04:38;;;;;;;1.77;1.58;;;;;;;12.65;39.99;98158.63;5101781;28;20482;-66
2022/04/21 19:07:23;;;;;;;3.60;1.60;;;;;;;12.67;39.72;98157.53;5107855;28;20039;-65
2022/04/21 19:10:09;;;;;;;2.05;1.35;;;;;;;12.66;39.91;98158.50;5091922;28;20034;-66
2022/04/21 19:12:58;;;;;;;3.53;1.70;;;;;;;12.76;39.84;98141.94;5101511;28;20099;-67
2022/04/21 19:15:45;;;;;;;9.10;1.73;;;;;;;12.77;39.85;98143.59;5105189;28;20062;-68
2022/04/21 19:18:31;;;;;;;3.22;1.73;;;;;;;12.84;39.71;98136.00;5096877;28;20305;-66
2022/04/21 19:24:20;;;;;;;2.25;1.40;;;;;;;12.74;40.29;98149.94;5107464;28;20047;-67
2022/04/21 19:27:11;;;;;;;3.25;1.45;;;;;;;12.84;40.01;98143.88;5108833;28;20148;-66
2022/04/21 19:29:56;;;;;;;2.35;1.67;;;;;;;12.78;40.04;98148.69;5112832;28;20047;-66
2022/04/21 19:32:41;;;;;;;2.40;1.42;;;;;;;12.84;39.97;98149.13;5112711;28;20046;-66
2022/04/21 19:35:27;;;;;;;1.80;1.38;;;;;;;12.67;40.28;98152.28;5111467;28;20031;-66
2022/04/21 19:38:13;;;;;;;3.13;1.52;;;;;;;12.53;40.55;98152.66;5116380;28;20114;-68
2022/04/21 19:40:59;;;;;;;3.67;1.63;;;;;;;12.47;40.83;98150.56;5104215;28;20035;-69
2022/04/21 19:43:43;;;;;;;3.60;1.83;;;;;;;12.35;40.93;98144.56;5111757;28;20475;-69
2022/04/21 19:46:29;;;;;;;2.35;1.70;;;;;;;12.23;41.25;98146.44;5109544;28;20035;-65
2022/04/21 19:49:13;;;;;;;3.97;2.03;;;;;;;12.21;41.10;98137.88;5108418;28;20032;-66
2022/04/21 19:51:58;;;;;;;3.35;1.70;;;;;;;12.25;41.01;98140.09;5079232;28;20024;-67
2022/04/21 19:54:43;;;;;;;2.97;1.90;;;;;;;12.10;41.37;98139.59;5063858;28;20032;-66
2022/04/21 19:57:29;;;;;;;2.63;1.90;;;;;;;12.08;41.37;98136.28;5094122;28;20458;-68
2022/04/21 20:00:15;;;;;;;3.60;1.90;;;;;;;12.06;41.75;98132.94;5104899;28;20112;-67
2022/04/21 20:03:00;;;;;;;2.53;1.55;;;;;;;12.02;41.90;98124.47;5109591;28;20104;-69
2022/04/21 20:08:56;;;;;;;2.67;1.80;;;;;;;11.92;42.01;98141.97;5105748;28;20869;-64
2022/04/21 20:11:43;;;;;;;4.03;2.08;;;;;;;11.87;42.18;98128.38;5090949;28;20129;-65
2022/04/21 20:14:28;;;;;;;4.03;2.70;;;;;;;11.85;42.47;98125.88;5107781;28;20039;-64
2022/04/21 20:17:13;;;;;;;3.78;2.50;;;;;;;11.88;42.52;98117.75;5101358;28;20040;-63
2022/04/21 20:23:01;;;;;;;7.90;2.60;;;;;;;11.86;42.77;98119.69;5108163;28;20558;-63
2022/04/21 20:26:46;;;;;;;7.05;3.20;;;;;;;11.77;43.10;98121.28;5099223;28;20047;-65
2022/04/21 20:29:00;;;;;;;5.05;3.25;;;;;;;11.75;43.51;98115.34;5090806;28;20138;-67
2022/04/21 20:31:45;;;;;;;5.70;3.28;;;;;;;11.68;43.35;98114.19;5100536;28;20036;-67
2022/04/21 20:34:31;;;;;;;4.80;2.55;;;;;;;11.59;43.61;98121.03;5100467;28;20036;-69
2022/04/21 20:37:17;;;;;;;4.88;2.90;;;;;;;11.62;43.65;98122.59;5092799;28;20040;-66
2022/04/21 20:40:03;;;;;;;6.20;3.90;;;;;;;11.51;43.98;98113.81;5101864;28;20075;-68
2022/04/21 20:42:49;;;;;;;6.05;3.30;;;;;;;11.44;44.54;98123.97;5103403;28;20039;-65
2022/04/21 20:45:33;;;;;;;5.13;3.08;;;;;;;11.50;44.47;98120.03;5104603;28;20035;-63
2022/04/21 20:48:18;;;;;;;6.18;3.35;;;;;;;11.56;44.58;98110.81;5081284;28;20043;-64
2022/04/21 20:51:04;;;;;;;5.97;3.47;;;;;;;11.50;45.06;98117.41;5082039;28;20043;-64
2022/04/21 20:53:50;;;;;;;4.57;3.47;;;;;;;11.66;44.76;98124.81;5107278;28;20084;-68
2022/04/21 20:56:34;;;;;;;8.43;3.78;;;;;;;11.40;45.38;98125.19;5104433;28;20044;-64
2022/04/21 20:59:20;;;;;;;4.88;3.38;;;;;;;11.39;45.44;98118.25;5098678;28;20544;-65
2022/04/21 21:02:06;;;;;;;5.20;3.38;;;;;;;11.41;44.90;98108.50;5116523;27;20043;-65
2022/04/21 21:04:51;;;;;;;5.30;3.55;;;;;;;11.38;45.05;98116.63;5098017;28;20043;-64
2022/04/21 21:07:37;;;;;;;6.68;3.53;;;;;;;11.32;45.04;98110.09;5076479;28;20379;-65
2022/04/21 21:10:23;;;;;;;4.63;3.13;;;;;;;11.28;45.66;98115.69;5098730;28;20040;-64
2022/04/21 21:13:07;;;;;;;4.25;3.00;;;;;;;11.37;45.06;98107.09;5089856;28;20118;-65
2022/04/21 21:15:52;;;;;;;6.38;3.50;;;;;;;11.11;46.00;98107.44;5097442;28;20064;-64
2022/04/21 21:18:37;;;;;;;5.93;3.30;;;;;;;11.18;45.49;98105.16;5094402;28;20028;-65
2022/04/21 21:21:24;;;;;;;5.15;3.25;;;;;;;11.17;45.73;98103.47;5097646;28;20376;-65
2022/04/21 21:24:09;;;;;;;5.22;3.00;;;;;;;11.15;45.73;98110.63;5093716;28;20032;-65
2022/04/21 21:26:55;;;;;;;5.10;3.25;;;;;;;11.14;45.62;98108.97;5099526;28;20047;-65
2022/04/21 21:29:39;;;;;;;4.20;2.70;;;;;;;11.41;44.99;98108.50;5114002;28;20039;-66
2022/04/21 21:32:24;;;;;;;5.78;3.40;;;;;;;11.28;45.61;98107.81;5098596;28;20051;-65
2022/04/21 21:35:10;;;;;;;4.40;2.85;;;;;;;11.31;45.38;98103.16;5113800;28;20036;-65
2022/04/21 21:37:55;;;;;;;5.57;2.85;;;;;;;11.34;45.62;98107.34;5113782;28;20467;-65
2022/04/21 21:40:40;;;;;;;7.10;3.05;;;;;;;11.42;45.53;98109.34;5113392;28;20047;-66
2022/04/21 21:43:24;;;;;;;6.13;3.22;;;;;;;11.31;45.78;98105.78;5112680;28;20039;-64
2022/04/21 21:46:10;;;;;;;4.45;2.78;;;;;;;11.32;45.71;98114.50;5112731;28;20413;-65
2022/04/21 21:55:03;;;;;;;7.85;3.28;;;;;;;11.01;46.27;98104.72;5113833;28;20424;-65
2022/04/21 21:57:48;;;;;;;5.25;3.08;;;;;;;11.09;46.19;98097.09;5114263;28;20393;-65
2022/04/21 22:00:48;;;;;;;5.95;3.05;;;;;;;11.17;46.08;98100.84;5112367;28;20089;-65
2022/04/21 22:03:33;;;;;;;4.28;2.50;;;;;;;11.18;45.93;98092.84;5113924;28;20054;-65
2022/04/21 22:06:18;;;;;;;4.43;3.17;;;;;;;11.19;46.33;98094.53;5112175;28;20047;-65
2022/04/21 22:09:05;;;;;;;5.75;3.63;;;;;;;11.00;46.74;98092.56;5111681;28;20043;-64
2022/04/21 22:11:49;;;;;;;6.65;3.63;;;;;;;10.97;46.81;98090.19;5110848;28;20043;-66
2022/04/21 22:14:34;;;;;;;5.15;3.42;;;;;;;10.86;46.93;98088.44;5112023;28;20048;-65
2022/04/21 22:17:19;;;;;;;5.30;3.25;;;;;;;10.80;47.30;98095.03;5112026;28;20067;-66
2022/04/21 22:20:06;;;;;;;6.38;3.75;;;;;;;10.72;47.62;98090.38;5113030;28;20181;-63
2022/04/21 22:22:52;;;;;;;4.85;3.45;;;;;;;10.64;47.61;98092.78;5112740;28;20482;-65
2022/04/21 22:25:37;;;;;;;6.18;3.35;;;;;;;10.63;47.79;98085.88;5113055;28;20047;-64
2022/04/21 22:28:21;;;;;;;4.60;2.95;;;;;;;10.61;47.92;98086.97;5113054;28;20032;-65
2022/04/21 22:31:07;;;;;;;6.78;3.65;;;;;;;10.66;47.88;98079.56;5112873;28;20047;-63
2022/04/21 22:33:52;;;;;;;5.50;3.33;;;;;;;10.69;47.40;98071.47;5113408;28;20395;-64
2022/04/21 22:36:37;;;;;;;4.70;3.20;;;;;;;10.59;47.86;98074.00;5112750;28;20044;-64
2022/04/21 22:39:22;;;;;;;6.78;3.53;;;;;;;10.58;47.72;98070.53;5113127;28;20470;-64
2022/04/21 22:42:08;;;;;;;4.47;3.28;;;;;;;10.55;48.12;98067.34;5111755;28;20053;-63
2022/04/21 22:44:54;;;;;;;10.50;3.67;;;;;;;10.55;48.12;98069.94;5112422;28;20563;-64
2022/04/21 22:47:40;;;;;;;5.40;3.53;;;;;;;10.47;48.29;98068.78;5111586;28;20035;-64
2022/04/21 22:50:25;;;;;;;4.10;2.65;;;;;;;10.65;48.20;98070.88;5113019;28;20051;-64
2022/04/21 22:53:10;;;;;;;10.30;4.00;;;;;;;10.46;48.64;98076.75;5112530;28;20485;-64
2022/04/21 22:55:55;;;;;;;6.05;3.15;;;;;;;10.43;49.05;98067.31;5111549;28;20044;-65
2022/04/21 22:58:39;;;;;;;6.25;3.50;;;;;;;10.54;48.45;98073.53;5111456;28;20522;-65
2022/04/21 23:01:24;;;;;;;5.72;3.45;;;;;;;10.37;48.92;98069.59;5111703;28;20039;-64
2022/04/21 23:04:09;;;;;;;8.27;3.78;;;;;;;10.20;49.35;98067.34;5097686;28;20063;-65
2022/04/21 23:06:54;;;;;;;6.00;3.78;;;;;;;10.14;49.61;98061.75;5112413;28;20043;-65
2022/04/21 23:15:46;;;;;;;5.63;3.60;;;;;;;9.86;50.78;98062.94;5110801;28;20051;-64
2022/04/21 23:18:31;;;;;;;7.57;3.95;;;;;;;9.95;50.51;98063.19;5112363;28;20046;-64
2022/04/21 23:21:16;;;;;;;5.72;3.67;;;;;;;10.12;50.01;98059.25;5112082;28;20036;-64
2022/04/21 23:24:01;;;;;;;6.93;3.72;;;;;;;10.19;49.70;98065.69;5112462;28;20036;-65
2022/04/21 23:26:47;;;;;;;6.95;4.38;;;;;;;10.22;49.58;98057.59;5111984;28;20039;-63
2022/04/21 23:29:33;;;;;;;7.05;3.60;;;;;;;9.86;50.51;98055.09;5111031;28;20100;-65
2022/04/21 23:32:18;;;;;;;5.90;3.25;;;;;;;10.07;50.20;98054.38;5111318;28;20063;-65
2022/04/21 23:35:04;;;;;;;7.35;3.65;;;;;;;10.08;50.01;98055.22;5111705;28;20070;-64
2022/04/21 23:40:51;;;;;;;9.52;4.18;;;;;;;9.61;51.16;98041.28;5110883;28;20036;-64
2022/04/21 23:43:36;;;;;;;6.50;4.00;;;;;;;9.65;51.05;98035.81;5111814;28;20034;-64
2022/04/21 23:46:21;;;;;;;8.55;3.90;;;;;;;9.49;51.52;98037.84;5111726;28;20497;-64
2022/04/21 23:49:08;;;;;;;7.72;4.22;;;;;;;9.48;51.50;98037.94;5097100;28;20051;-64
2022/04/21 23:51:53;;;;;;;8.02;5.38;;;;;;;9.40;51.82;98040.31;5111991;28;20093;-64
2022/04/21 23:54:38;;;;;;;9.15;4.80;;;;;;;9.41;52.02;98034.97;5096681;28;20036;-64
2022/04/21 23:57:22;;;;;;;7.93;4.30;;;;;;;9.29;52.35;98039.31;5110824;28;20027;-65
